sensor_id;sensor_type;location;lat;lon;timestamp;pressure;altitude;pressure_sealevel;temperature;humidity
47524;BME280;33253;42.144;25.884;2023-09-19T00:02:02;100813.91;;;16.79;88.96
47524;BME280;33253;42.144;25.884;2023-09-19T00:04:32;100857.06;;;17.10;87.47
47524;BME280;33253;42.144;25.884;2023-09-19T00:06:59;100835.31;;;17.10;86.88
47524;BME280;33253;42.144;25.884;2023-09-19T00:09:24;100835.31;;;17.10;86.85
47524;BME280;33253;42.144;25.884;2023-09-19T00:11:53;100859.03;;;17.27;86.79
47524;BME280;33253;42.144;25.884;2023-09-19T00:14:19;100834.41;;;17.08;85.96
47524;BME280;33253;42.144;25.884;2023-09-19T00:16:44;100838.78;;;17.10;85.69
47524;BME280;33253;42.144;25.884;2023-09-19T00:19:12;100867.75;;;16.77;86.75
47524;BME280;33253;42.144;25.884;2023-09-19T00:21:38;100863.34;;;16.73;87.05
47524;BME280;33253;42.144;25.884;2023-09-19T00:24:06;100795.81;;;16.38;86.89
47524;BME280;33253;42.144;25.884;2023-09-19T00:26:34;100860.97;;;16.85;86.85
47524;BME280;33253;42.144;25.884;2023-09-19T00:28:59;100776.84;;;16.45;86.63
47524;BME280;33253;42.144;25.884;2023-09-19T00:31:31;100825.16;;;16.76;86.75
47524;BME280;33253;42.144;25.884;2023-09-19T00:33:56;100855.03;;;16.92;87.52
47524;BME280;33253;42.144;25.884;2023-09-19T00:36:29;100806.91;;;16.75;86.89
47524;BME280;33253;42.144;25.884;2023-09-19T00:38:54;100805.78;;;16.62;86.56
47524;BME280;33253;42.144;25.884;2023-09-19T00:41:20;100824.88;;;16.59;88.33
47524;BME280;33253;42.144;25.884;2023-09-19T00:43:46;100762.72;;;16.33;89.45
47524;BME280;33253;42.144;25.884;2023-09-19T00:46:16;100847.75;;;16.76;89.89
47524;BME280;33253;42.144;25.884;2023-09-19T00:48:42;100824.25;;;16.73;89.33
47524;BME280;33253;42.144;25.884;2023-09-19T00:51:11;100774.50;;;16.60;89.33
47524;BME280;33253;42.144;25.884;2023-09-19T00:53:39;100844.00;;;17.10;88.47
47524;BME280;33253;42.144;25.884;2023-09-19T00:56:05;100842.44;;;17.20;88.21
47524;BME280;33253;42.144;25.884;2023-09-19T00:58:34;100847.78;;;17.29;88.00
47524;BME280;33253;42.144;25.884;2023-09-19T01:01:01;100807.41;;;17.04;89.89
47524;BME280;33253;42.144;25.884;2023-09-19T01:03:27;100815.09;;;16.95;93.17
47524;BME280;33253;42.144;25.884;2023-09-19T01:05:53;100778.94;;;16.66;94.56
47524;BME280;33253;42.144;25.884;2023-09-19T01:08:18;100843.53;;;16.82;95.60
47524;BME280;33253;42.144;25.884;2023-09-19T01:11:01;100840.41;;;16.55;95.13
47524;BME280;33253;42.144;25.884;2023-09-19T01:13:37;100845.44;;;15.99;100.00
47524;BME280;33253;42.144;25.884;2023-09-19T01:25:07;100844.81;;;15.72;97.97
47524;BME280;33253;42.144;25.884;2023-09-19T01:30:11;100846.34;;;15.62;97.54
47524;BME280;33253;42.144;25.884;2023-09-19T01:32:39;100846.59;;;15.34;97.42
47524;BME280;33253;42.144;25.884;2023-09-19T01:35:06;100822.53;;;15.07;97.14
47524;BME280;33253;42.144;25.884;2023-09-19T01:37:32;100856.41;;;15.11;97.79
47524;BME280;33253;42.144;25.884;2023-09-19T01:48:05;100824.25;;;14.71;98.15
47524;BME280;33253;42.144;25.884;2023-09-19T01:51:00;100836.38;;;14.70;98.47
47524;BME280;33253;42.144;25.884;2023-09-19T01:53:33;100844.16;;;14.70;98.16
47524;BME280;33253;42.144;25.884;2023-09-19T01:56:01;100844.09;;;14.69;98.11
47524;BME280;33253;42.144;25.884;2023-09-19T01:58:41;100840.28;;;14.56;98.39
47524;BME280;33253;42.144;25.884;2023-09-19T02:01:12;100823.81;;;14.23;99.35
47524;BME280;33253;42.144;25.884;2023-09-19T02:03:41;100829.53;;;14.12;100.00
47524;BME280;33253;42.144;25.884;2023-09-19T02:06:14;100756.72;;;13.45;100.00
47524;BME280;33253;42.144;25.884;2023-09-19T02:08:41;100831.00;;;14.02;100.00
47524;BME280;33253;42.144;25.884;2023-09-19T02:11:06;100807.31;;;13.89;100.00
47524;BME280;33253;42.144;25.884;2023-09-19T02:13:32;100810.53;;;13.82;100.00
47524;BME280;33253;42.144;25.884;2023-09-19T02:15:57;100818.69;;;13.95;100.00
47524;BME280;33253;42.144;25.884;2023-09-19T02:18:23;100832.47;;;14.24;100.00
47524;BME280;33253;42.144;25.884;2023-09-19T02:20:53;100832.97;;;14.43;100.00
47524;BME280;33253;42.144;25.884;2023-09-19T02:23:38;100808.06;;;14.49;98.60
47524;BME280;33253;42.144;25.884;2023-09-19T02:26:04;100832.34;;;14.83;97.43
47524;BME280;33253;42.144;25.884;2023-09-19T02:28:30;100820.31;;;14.87;96.74
47524;BME280;33253;42.144;25.884;2023-09-19T02:30:57;100832.72;;;14.99;94.80
47524;BME280;33253;42.144;25.884;2023-09-19T02:33:23;100817.72;;;14.87;94.32
47524;BME280;33253;42.144;25.884;2023-09-19T02:35:50;100762.38;;;14.59;93.63
47524;BME280;33253;42.144;25.884;2023-09-19T02:38:23;100823.13;;;14.96;94.30
47524;BME280;33253;42.144;25.884;2023-09-19T02:40:50;100844.16;;;15.06;95.23
47524;BME280;33253;42.144;25.884;2023-09-19T02:43:16;100845.16;;;15.11;99.86
47524;BME280;33253;42.144;25.884;2023-09-19T02:45:42;100813.38;;;14.87;100.00
47524;BME280;33253;42.144;25.884;2023-09-19T02:48:08;100822.41;;;15.02;100.00
47524;BME280;33253;42.144;25.884;2023-09-19T02:50:33;100799.56;;;14.56;100.00
47524;BME280;33253;42.144;25.884;2023-09-19T02:52:59;100801.25;;;14.53;100.00
47524;BME280;33253;42.144;25.884;2023-09-19T02:55:25;100799.97;;;14.38;100.00
47524;BME280;33253;42.144;25.884;2023-09-19T02:57:53;100729.53;;;13.94;100.00
47524;BME280;33253;42.144;25.884;2023-09-19T03:00:22;100806.75;;;14.32;100.00
47524;BME280;33253;42.144;25.884;2023-09-19T03:02:55;100814.91;;;14.46;100.00
47524;BME280;33253;42.144;25.884;2023-09-19T03:05:21;100806.44;;;14.53;100.00
47524;BME280;33253;42.144;25.884;2023-09-19T03:07:48;100810.41;;;14.40;100.00
47524;BME280;33253;42.144;25.884;2023-09-19T03:10:17;100725.47;;;13.72;100.00
47524;BME280;33253;42.144;25.884;2023-09-19T03:12:43;100807.06;;;14.12;100.00
47524;BME280;33253;42.144;25.884;2023-09-19T03:15:09;100801.16;;;14.18;100.00
47524;BME280;33253;42.144;25.884;2023-09-19T03:17:34;100803.88;;;13.62;100.00
47524;BME280;33253;42.144;25.884;2023-09-19T03:20:01;100789.94;;;13.58;100.00
47524;BME280;33253;42.144;25.884;2023-09-19T03:22:27;100802.47;;;13.73;100.00
47524;BME280;33253;42.144;25.884;2023-09-19T03:24:53;100724.25;;;13.30;100.00
47524;BME280;33253;42.144;25.884;2023-09-19T03:27:19;100808.75;;;13.80;100.00
47524;BME280;33253;42.144;25.884;2023-09-19T03:29:46;100776.47;;;13.70;100.00
47524;BME280;33253;42.144;25.884;2023-09-19T03:32:11;100801.00;;;13.81;100.00
47524;BME280;33253;42.144;25.884;2023-09-19T03:34:38;100731.84;;;13.24;100.00
47524;BME280;33253;42.144;25.884;2023-09-19T03:37:08;100802.28;;;13.67;100.00
47524;BME280;33253;42.144;25.884;2023-09-19T03:39:34;100711.31;;;13.32;100.00
47524;BME280;33253;42.144;25.884;2023-09-19T03:42:00;100808.47;;;14.01;99.89
47524;BME280;33253;42.144;25.884;2023-09-19T03:44:25;100757.81;;;13.83;98.20
47524;BME280;33253;42.144;25.884;2023-09-19T03:46:51;100737.09;;;13.85;96.27
47524;BME280;33253;42.144;25.884;2023-09-19T03:49:36;100812.81;;;14.32;96.22
47524;BME280;33253;42.144;25.884;2023-09-19T03:52:02;100818.03;;;14.34;94.40
47524;BME280;33253;42.144;25.884;2023-09-19T03:54:27;100816.38;;;14.36;93.23
47524;BME280;33253;42.144;25.884;2023-09-19T03:56:54;100814.84;;;14.12;90.51
47524;BME280;33253;42.144;25.884;2023-09-19T03:59:19;100769.81;;;13.80;91.26
47524;BME280;33253;42.144;25.884;2023-09-19T04:01:46;100817.41;;;14.11;91.39
47524;BME280;33253;42.144;25.884;2023-09-19T04:04:12;100812.06;;;14.04;92.14
47524;BME280;33253;42.144;25.884;2023-09-19T04:06:39;100807.72;;;14.05;92.57
47524;BME280;33253;42.144;25.884;2023-09-19T04:09:05;100725.00;;;13.55;93.63
47524;BME280;33253;42.144;25.884;2023-09-19T04:11:33;100796.97;;;13.91;93.48
47524;BME280;33253;42.144;25.884;2023-09-19T04:13:59;100797.63;;;13.84;94.07
47524;BME280;33253;42.144;25.884;2023-09-19T04:16:24;100819.03;;;14.07;94.12
47524;BME280;33253;42.144;25.884;2023-09-19T04:18:50;100824.25;;;13.78;94.29
47524;BME280;33253;42.144;25.884;2023-09-19T04:21:15;100820.69;;;13.46;96.24
47524;BME280;33253;42.144;25.884;2023-09-19T04:23:41;100738.06;;;13.02;nan
47524;BME280;33253;42.144;25.884;2023-09-19T04:26:08;100827.56;;;13.43;98.95
47524;BME280;33253;42.144;25.884;2023-09-19T04:28:53;100843.13;;;13.18;100.00
47524;BME280;33253;42.144;25.884;2023-09-19T04:31:18;100832.47;;;13.08;100.00
47524;BME280;33253;42.144;25.884;2023-09-19T04:33:44;100843.00;;;13.40;100.00
47524;BME280;33253;42.144;25.884;2023-09-19T04:36:10;100841.81;;;13.58;100.00
47524;BME280;33253;42.144;25.884;2023-09-19T04:38:35;100841.09;;;13.62;99.83
47524;BME280;33253;42.144;25.884;2023-09-19T04:41:01;100846.69;;;13.47;100.00
47524;BME280;33253;42.144;25.884;2023-09-19T04:43:26;100820.78;;;13.49;99.85
47524;BME280;33253;42.144;25.884;2023-09-19T04:45:52;100849.00;;;13.67;99.80
47524;BME280;33253;42.144;25.884;2023-09-19T04:48:22;100817.56;;;13.56;99.85
47524;BME280;33253;42.144;25.884;2023-09-19T04:50:49;100842.47;;;13.80;99.27
47524;BME280;33253;42.144;25.884;2023-09-19T04:53:15;100846.06;;;13.83;99.04
47524;BME280;33253;42.144;25.884;2023-09-19T04:55:40;100845.50;;;13.95;98.33
47524;BME280;33253;42.144;25.884;2023-09-19T04:58:06;100834.38;;;13.99;97.60
47524;BME280;33253;42.144;25.884;2023-09-19T05:00:31;100750.59;;;13.42;98.15
47524;BME280;33253;42.144;25.884;2023-09-19T05:03:00;100844.53;;;13.91;98.54
47524;BME280;33253;42.144;25.884;2023-09-19T05:05:26;100832.81;;;14.04;98.36
47524;BME280;33253;42.144;25.884;2023-09-19T05:07:52;100838.13;;;14.09;98.44
47524;BME280;33253;42.144;25.884;2023-09-19T05:10:19;100839.19;;;14.16;98.62
47524;BME280;33253;42.144;25.884;2023-09-19T05:12:45;100824.16;;;14.05;98.88
47524;BME280;33253;42.144;25.884;2023-09-19T05:15:13;100830.28;;;14.07;98.96
47524;BME280;33253;42.144;25.884;2023-09-19T05:17:42;100847.34;;;13.99;100.00
47524;BME280;33253;42.144;25.884;2023-09-19T05:20:15;100832.41;;;13.90;100.00
47524;BME280;33253;42.144;25.884;2023-09-19T05:23:09;100841.81;;;14.17;100.00
47524;BME280;33253;42.144;25.884;2023-09-19T05:25:38;100839.81;;;14.39;99.45
47524;BME280;33253;42.144;25.884;2023-09-19T05:28:09;100845.13;;;14.44;99.04
47524;BME280;33253;42.144;25.884;2023-09-19T05:30:37;100840.75;;;14.41;99.89
47524;BME280;33253;42.144;25.884;2023-09-19T05:33:04;100840.09;;;14.50;99.85
47524;BME280;33253;42.144;25.884;2023-09-19T05:35:30;100810.75;;;14.54;98.92
47524;BME280;33253;42.144;25.884;2023-09-19T05:37:57;100836.38;;;14.70;98.73
47524;BME280;33253;42.144;25.884;2023-09-19T05:40:42;100809.09;;;14.56;99.70
47524;BME280;33253;42.144;25.884;2023-09-19T05:43:10;100837.34;;;14.76;100.00
47524;BME280;33253;42.144;25.884;2023-09-19T05:45:36;100813.00;;;14.72;100.00
47524;BME280;33253;42.144;25.884;2023-09-19T05:48:13;100760.22;;;14.41;100.00
47524;BME280;33253;42.144;25.884;2023-09-19T05:50:41;100833.81;;;15.09;100.00
47524;BME280;33253;42.144;25.884;2023-09-19T05:53:07;100829.19;;;15.32;98.69
47524;BME280;33253;42.144;25.884;2023-09-19T05:55:33;100821.78;;;15.49;99.17
47524;BME280;33253;42.144;25.884;2023-09-19T05:57:58;100818.41;;;15.55;100.00
47524;BME280;33253;42.144;25.884;2023-09-19T06:00:25;100808.94;;;15.57;99.81
47524;BME280;33253;42.144;25.884;2023-09-19T06:02:58;100829.69;;;15.93;99.45
47524;BME280;33253;42.144;25.884;2023-09-19T06:05:27;100819.81;;;16.21;97.46
47524;BME280;33253;42.144;25.884;2023-09-19T06:07:53;100828.16;;;16.49;96.39
47524;BME280;33253;42.144;25.884;2023-09-19T06:10:19;100821.16;;;16.46;96.06
47524;BME280;33253;42.144;25.884;2023-09-19T06:12:48;100813.09;;;16.32;97.13
47524;BME280;33253;42.144;25.884;2023-09-19T06:15:14;100793.88;;;16.27;98.72
47524;BME280;33253;42.144;25.884;2023-09-19T06:17:51;100810.50;;;16.32;100.00
47524;BME280;33253;42.144;25.884;2023-09-19T06:20:17;100797.59;;;16.40;100.00
47524;BME280;33253;42.144;25.884;2023-09-19T06:22:44;100747.16;;;16.37;99.52
47524;BME280;33253;42.144;25.884;2023-09-19T06:25:10;100610.03;;;15.90;96.77
47524;BME280;33253;42.144;25.884;2023-09-19T06:27:40;100816.81;;;17.54;94.60
47524;BME280;33253;42.144;25.884;2023-09-19T06:30:10;100816.34;;;17.83;93.34
47524;BME280;33253;42.144;25.884;2023-09-19T06:32:37;100822.78;;;18.10;91.21
47524;BME280;33253;42.144;25.884;2023-09-19T06:35:02;100816.03;;;18.29;90.58
47524;BME280;33253;42.144;25.884;2023-09-19T06:37:28;100819.63;;;18.39;91.03
47524;BME280;33253;42.144;25.884;2023-09-19T06:39:54;100824.81;;;18.36;90.14
47524;BME280;33253;42.144;25.884;2023-09-19T06:42:19;100837.06;;;18.38;90.66
47524;BME280;33253;42.144;25.884;2023-09-19T06:44:46;100826.00;;;18.67;89.35
47524;BME280;33253;42.144;25.884;2023-09-19T06:47:11;100829.66;;;18.86;88.37
47524;BME280;33253;42.144;25.884;2023-09-19T06:49:36;100769.28;;;18.62;86.85
47524;BME280;33253;42.144;25.884;2023-09-19T06:52:02;100828.91;;;18.98;88.58
47524;BME280;33253;42.144;25.884;2023-09-19T06:54:28;100824.59;;;19.06;88.00
47524;BME280;33253;42.144;25.884;2023-09-19T06:56:59;100822.88;;;19.08;87.81
47524;BME280;33253;42.144;25.884;2023-09-19T06:59:24;100819.50;;;19.22;86.69
47524;BME280;33253;42.144;25.884;2023-09-19T07:01:50;100819.66;;;19.45;86.10
47524;BME280;33253;42.144;25.884;2023-09-19T07:04:16;100821.53;;;19.72;84.46
47524;BME280;33253;42.144;25.884;2023-09-19T07:06:44;100821.69;;;20.03;83.28
47524;BME280;33253;42.144;25.884;2023-09-19T07:09:11;100702.66;;;19.41;82.61
47524;BME280;33253;42.144;25.884;2023-09-19T07:11:37;100753.53;;;19.94;80.89
47524;BME280;33253;42.144;25.884;2023-09-19T07:14:03;100822.69;;;20.53;80.51
47524;BME280;33253;42.144;25.884;2023-09-19T07:16:28;100768.47;;;20.32;79.19
47524;BME280;33253;42.144;25.884;2023-09-19T07:18:55;100754.50;;;20.41;80.72
47524;BME280;33253;42.144;25.884;2023-09-19T07:21:22;100816.63;;;20.73;79.99
47524;BME280;33253;42.144;25.884;2023-09-19T07:23:48;100815.72;;;20.54;81.26
47524;BME280;33253;42.144;25.884;2023-09-19T07:26:13;100813.09;;;20.66;80.58
47524;BME280;33253;42.144;25.884;2023-09-19T07:28:39;100809.66;;;20.86;79.64
47524;BME280;33253;42.144;25.884;2023-09-19T07:31:04;100742.28;;;20.65;78.01
47524;BME280;33253;42.144;25.884;2023-09-19T07:33:32;100799.97;;;21.21;77.70
47524;BME280;33253;42.144;25.884;2023-09-19T07:35:57;100796.47;;;21.31;77.18
47524;BME280;33253;42.144;25.884;2023-09-19T07:38:23;100802.53;;;21.52;77.29
47524;BME280;33253;42.144;25.884;2023-09-19T07:40:50;100790.22;;;21.71;76.56
47524;BME280;33253;42.144;25.884;2023-09-19T07:43:15;100731.63;;;21.58;76.47
47524;BME280;33253;42.144;25.884;2023-09-19T07:45:41;100783.91;;;22.10;73.96
47524;BME280;33253;42.144;25.884;2023-09-19T07:48:07;100756.97;;;21.68;80.01
47524;BME280;33253;42.144;25.884;2023-09-19T07:50:39;100773.50;;;21.86;77.20
47524;BME280;33253;42.144;25.884;2023-09-19T07:53:05;100775.22;;;21.97;80.03
47524;BME280;33253;42.144;25.884;2023-09-19T07:55:31;100777.03;;;21.91;73.84
47524;BME280;33253;42.144;25.884;2023-09-19T07:57:59;100691.44;;;21.31;73.47
47524;BME280;33253;42.144;25.884;2023-09-19T08:00:24;100760.38;;;21.89;75.62
47524;BME280;33253;42.144;25.884;2023-09-19T08:02:49;100769.94;;;21.99;73.42
47524;BME280;33253;42.144;25.884;2023-09-19T08:05:17;100770.81;;;22.03;72.45
47524;BME280;33253;42.144;25.884;2023-09-19T08:07:45;100763.75;;;22.12;70.53
47524;BME280;33253;42.144;25.884;2023-09-19T08:10:16;100756.81;;;21.99;70.81
47524;BME280;33253;42.144;25.884;2023-09-19T08:12:45;100760.22;;;22.15;70.06
47524;BME280;33253;42.144;25.884;2023-09-19T08:15:15;100763.66;;;22.29;68.81
47524;BME280;33253;42.144;25.884;2023-09-19T08:17:42;100755.72;;;22.37;68.96
47524;BME280;33253;42.144;25.884;2023-09-19T08:20:09;100748.63;;;22.49;67.59
47524;BME280;33253;42.144;25.884;2023-09-19T08:22:52;100745.91;;;22.56;67.55
47524;BME280;33253;42.144;25.884;2023-09-19T08:25:20;100626.31;;;21.89;67.57
47524;BME280;33253;42.144;25.884;2023-09-19T08:27:46;100734.44;;;22.67;66.34
47524;BME280;33253;42.144;25.884;2023-09-19T08:30:16;100733.28;;;22.94;63.93
47524;BME280;33253;42.144;25.884;2023-09-19T08:32:41;100725.34;;;23.00;62.48
47524;BME280;33253;42.144;25.884;2023-09-19T08:35:08;100724.25;;;23.24;65.72
47524;BME280;33253;42.144;25.884;2023-09-19T08:37:35;100684.81;;;23.18;64.25
47524;BME280;33253;42.144;25.884;2023-09-19T08:40:00;100720.28;;;23.59;65.12
47524;BME280;33253;42.144;25.884;2023-09-19T08:42:25;100697.44;;;23.60;64.39
47524;BME280;33253;42.144;25.884;2023-09-19T08:44:52;100712.97;;;23.82;62.80
47524;BME280;33253;42.144;25.884;2023-09-19T08:47:33;100695.41;;;23.81;62.29
47524;BME280;33253;42.144;25.884;2023-09-19T08:50:39;100699.66;;;23.91;62.45
47524;BME280;33253;42.144;25.884;2023-09-19T08:53:11;100681.28;;;23.86;62.78
47524;BME280;33253;42.144;25.884;2023-09-19T08:55:40;100702.00;;;24.11;61.39
47524;BME280;33253;42.144;25.884;2023-09-19T08:58:10;100678.16;;;24.19;58.97
47524;BME280;33253;42.144;25.884;2023-09-19T09:00:36;100691.03;;;24.39;58.93
47524;BME280;33253;42.144;25.884;2023-09-19T09:03:03;100695.53;;;24.32;59.88
47524;BME280;33253;42.144;25.884;2023-09-19T09:05:29;100690.22;;;24.35;60.19
47524;BME280;33253;42.144;25.884;2023-09-19T09:07:58;100682.31;;;24.32;59.98
47524;BME280;33253;42.144;25.884;2023-09-19T09:10:25;100684.91;;;24.37;61.73
47524;BME280;33253;42.144;25.884;2023-09-19T09:12:51;100685.53;;;24.51;60.86
47524;BME280;33253;42.144;25.884;2023-09-19T09:15:19;100665.94;;;24.66;59.95
47524;BME280;33253;42.144;25.884;2023-09-19T09:17:47;100686.50;;;24.96;59.88
47524;BME280;33253;42.144;25.884;2023-09-19T09:20:17;100675.25;;;24.86;57.63
47524;BME280;33253;42.144;25.884;2023-09-19T09:22:54;100677.69;;;24.97;57.27
47524;BME280;33253;42.144;25.884;2023-09-19T09:25:20;100665.22;;;25.05;60.37
47524;BME280;33253;42.144;25.884;2023-09-19T09:28:01;100666.66;;;25.20;61.29
47524;BME280;33253;42.144;25.884;2023-09-19T09:30:38;100668.34;;;25.24;58.89
47524;BME280;33253;42.144;25.884;2023-09-19T09:33:10;100648.09;;;25.25;61.44
47524;BME280;33253;42.144;25.884;2023-09-19T09:35:37;100600.81;;;25.11;58.66
47524;BME280;33253;42.144;25.884;2023-09-19T09:38:12;100659.06;;;25.48;59.01
47524;BME280;33253;42.144;25.884;2023-09-19T09:40:49;100651.41;;;25.33;57.58
47524;BME280;33253;42.144;25.884;2023-09-19T09:43:28;100648.41;;;25.51;55.04
47524;BME280;33253;42.144;25.884;2023-09-19T09:46:12;100652.34;;;25.73;55.43
47524;BME280;33253;42.144;25.884;2023-09-19T09:49:01;100642.16;;;25.93;53.42
47524;BME280;33253;42.144;25.884;2023-09-19T09:51:49;100637.44;;;26.08;54.29
47524;BME280;33253;42.144;25.884;2023-09-19T09:54:26;100645.75;;;26.27;52.78
47524;BME280;33253;42.144;25.884;2023-09-19T09:57:11;100640.13;;;26.41;53.84
47524;BME280;33253;42.144;25.884;2023-09-19T10:00:00;100624.09;;;26.47;51.05
47524;BME280;33253;42.144;25.884;2023-09-19T10:02:39;100636.94;;;26.61;50.41
47524;BME280;33253;42.144;25.884;2023-09-19T10:05:19;100625.31;;;26.67;53.92
47524;BME280;33253;42.144;25.884;2023-09-19T10:07:54;100599.09;;;26.57;52.32
47524;BME280;33253;42.144;25.884;2023-09-19T10:10:37;100631.75;;;26.91;51.14
47524;BME280;33253;42.144;25.884;2023-09-19T10:13:13;100622.47;;;27.06;51.80
47524;BME280;33253;42.144;25.884;2023-09-19T10:15:44;100583.94;;;26.95;50.68
47524;BME280;33253;42.144;25.884;2023-09-19T10:18:20;100616.41;;;27.32;49.77
47524;BME280;33253;42.144;25.884;2023-09-19T10:20:46;100579.66;;;27.20;53.08
47524;BME280;33253;42.144;25.884;2023-09-19T10:23:14;100613.28;;;27.48;49.22
47524;BME280;33253;42.144;25.884;2023-09-19T10:25:42;100595.69;;;27.47;49.05
47524;BME280;33253;42.144;25.884;2023-09-19T10:28:10;100576.69;;;27.31;48.86
47524;BME280;33253;42.144;25.884;2023-09-19T10:30:44;100604.09;;;27.59;49.66
47524;BME280;33253;42.144;25.884;2023-09-19T10:33:12;100550.78;;;27.39;50.66
47524;BME280;33253;42.144;25.884;2023-09-19T10:35:39;100576.84;;;27.54;50.97
47524;BME280;33253;42.144;25.884;2023-09-19T10:38:06;100593.19;;;27.69;50.83
47524;BME280;33253;42.144;25.884;2023-09-19T10:40:33;100572.78;;;27.71;50.72
47524;BME280;33253;42.144;25.884;2023-09-19T10:43:04;100440.09;;;26.92;47.83
47524;BME280;33253;42.144;25.884;2023-09-19T10:45:33;100589.00;;;27.62;50.64
47524;BME280;33253;42.144;25.884;2023-09-19T10:48:03;100576.03;;;27.52;50.84
47524;BME280;33253;42.144;25.884;2023-09-19T10:53:18;100559.44;;;27.74;51.32
47524;BME280;33253;42.144;25.884;2023-09-19T10:55:59;100535.16;;;27.59;48.93
47524;BME280;33253;42.144;25.884;2023-09-19T10:58:31;100558.59;;;27.99;47.44
47524;BME280;33253;42.144;25.884;2023-09-19T11:01:02;100556.13;;;27.92;45.66
47524;BME280;33253;42.144;25.884;2023-09-19T11:03:37;100564.00;;;27.69;46.86
47524;BME280;33253;42.144;25.884;2023-09-19T11:06:14;100555.91;;;28.00;47.24
47524;BME280;33253;42.144;25.884;2023-09-19T11:08:59;100549.44;;;28.09;45.42
47524;BME280;33253;42.144;25.884;2023-09-19T11:11:41;100546.75;;;27.82;46.11
47524;BME280;33253;42.144;25.884;2023-09-19T11:14:37;100471.78;;;27.50;45.92
47524;BME280;33253;42.144;25.884;2023-09-19T11:30:42;100503.84;;;28.47;43.42
47524;BME280;33253;42.144;25.884;2023-09-19T11:39:04;100499.56;;;28.43;43.70
47524;BME280;33253;42.144;25.884;2023-09-19T11:41:38;100503.22;;;28.64;44.08
47524;BME280;33253;42.144;25.884;2023-09-19T11:49:17;100494.41;;;29.09;40.53
47524;BME280;33253;42.144;25.884;2023-09-19T11:51:50;100495.28;;;29.32;41.11
47524;BME280;33253;42.144;25.884;2023-09-19T11:54:19;100459.06;;;29.29;40.09
47524;BME280;33253;42.144;25.884;2023-09-19T11:56:49;100471.72;;;29.00;40.43
47524;BME280;33253;42.144;25.884;2023-09-19T11:59:25;100486.84;;;29.20;40.35
47524;BME280;33253;42.144;25.884;2023-09-19T12:01:57;100484.53;;;29.35;41.14
47524;BME280;33253;42.144;25.884;2023-09-19T12:04:42;100470.28;;;29.14;42.96
47524;BME280;33253;42.144;25.884;2023-09-19T12:07:09;100471.56;;;29.26;39.32
47524;BME280;33253;42.144;25.884;2023-09-19T12:12:25;100464.78;;;29.18;39.08
47524;BME280;33253;42.144;25.884;2023-09-19T12:14:57;100466.25;;;29.03;39.89
47524;BME280;33253;42.144;25.884;2023-09-19T12:17:24;100438.22;;;28.96;39.63
47524;BME280;33253;42.144;25.884;2023-09-19T12:19:51;100387.03;;;28.91;39.07
47524;BME280;33253;42.144;25.884;2023-09-19T12:22:17;100429.00;;;28.83;40.28
47524;BME280;33253;42.144;25.884;2023-09-19T12:24:44;100438.31;;;29.15;40.23
47524;BME280;33253;42.144;25.884;2023-09-19T12:27:11;100432.63;;;29.25;37.72
47524;BME280;33253;42.144;25.884;2023-09-19T12:29:44;100316.59;;;28.58;38.22
47524;BME280;33253;42.144;25.884;2023-09-19T12:32:10;100422.78;;;29.27;37.99
47524;BME280;33253;42.144;25.884;2023-09-19T12:34:36;100435.88;;;29.33;37.64
47524;BME280;33253;42.144;25.884;2023-09-19T12:37:16;100428.94;;;29.49;37.89
47524;BME280;33253;42.144;25.884;2023-09-19T12:39:52;100420.44;;;29.62;40.19
47524;BME280;33253;42.144;25.884;2023-09-19T12:42:25;100426.81;;;29.78;39.79
47524;BME280;33253;42.144;25.884;2023-09-19T12:44:58;100418.97;;;29.54;38.91
47524;BME280;33253;42.144;25.884;2023-09-19T12:47:27;100421.47;;;29.39;38.55
47524;BME280;33253;42.144;25.884;2023-09-19T12:50:14;100409.00;;;29.39;38.29
47524;BME280;33253;42.144;25.884;2023-09-19T12:52:45;100390.16;;;29.23;38.81
47524;BME280;33253;42.144;25.884;2023-09-19T12:58:12;100333.00;;;28.46;37.45
47524;BME280;33253;42.144;25.884;2023-09-19T13:00:42;100415.31;;;29.14;36.26
47524;BME280;33253;42.144;25.884;2023-09-19T13:05:55;100382.94;;;29.04;38.01
47524;BME280;33253;42.144;25.884;2023-09-19T13:08:34;100405.44;;;29.18;39.19
47524;BME280;33253;42.144;25.884;2023-09-19T13:11:13;100390.06;;;29.25;36.89
47524;BME280;33253;42.144;25.884;2023-09-19T13:16:11;100385.63;;;29.47;36.14
47524;BME280;33253;42.144;25.884;2023-09-19T13:18:58;100342.06;;;29.29;36.03
47524;BME280;33253;42.144;25.884;2023-09-19T13:21:28;100381.47;;;29.61;35.65
47524;BME280;33253;42.144;25.884;2023-09-19T13:23:55;100311.81;;;29.11;35.31
47524;BME280;33253;42.144;25.884;2023-09-19T13:26:26;100382.00;;;29.48;37.45
47524;BME280;33253;42.144;25.884;2023-09-19T13:28:56;100377.25;;;29.36;35.41
47524;BME280;33253;42.144;25.884;2023-09-19T13:31:21;100365.22;;;29.05;34.92
47524;BME280;33253;42.144;25.884;2023-09-19T13:33:49;100387.81;;;29.15;38.36
47524;BME280;33253;42.144;25.884;2023-09-19T13:36:15;100377.44;;;29.09;38.64
47524;BME280;33253;42.144;25.884;2023-09-19T13:38:42;100388.72;;;28.94;39.26
47524;BME280;33253;42.144;25.884;2023-09-19T13:41:11;100376.19;;;28.75;37.95
47524;BME280;33253;42.144;25.884;2023-09-19T13:43:37;100373.06;;;28.64;37.56
47524;BME280;33253;42.144;25.884;2023-09-19T13:46:04;100369.22;;;28.49;39.89
47524;BME280;33253;42.144;25.884;2023-09-19T13:48:31;100388.06;;;28.43;39.57